Birmingham, AL (35213)

2:31 AM CDT on July 29, 2016 (GMT -0500)
Crestwood South | | Change Station

Elev 1079 ft 33.52 °N, 86.74 °W | Updated 10 minutes ago

Clear
Clear
74.1 °F
Feels Like 72 °F
N
1.0
Wind Variable Wind from West
Gusts 1.0 mph

Today
High -- | Low -- °F
--% Chance of Precip.
Yesterday
High -- | Low -- °F
Precip. -- in
Pressure 30.02 in
Visibility 10.0 miles
Clouds Clear
Heat Index 72 °F
Dew Point 72 °F
Humidity 93%
Rainfall 0.00 in
Snow Depth Not available.
5:57 AM 7:48 PM
Waning Crescent, 24% visible
METAR KBHM 290653Z 00000KT 10SM CLR 24/23 A3005 RMK AO2 SLP165 T02440228 PNO $
Pressure 30.02 in
Visibility 10.0 miles
Clouds Clear
Heat Index 72 °F
Dew Point 72 °F
Humidity 93%
Rainfall 0.00 in
Snow Depth Not available.
5:57 AM 7:48 PM
Waning Crescent, 24% visible
METAR KBHM 290653Z 00000KT 10SM CLR 24/23 A3005 RMK AO2 SLP165 T02440228 PNO $

10-Day Weather Forecast

Almanac

Astronomy

Jul. 29, 2016 Rise Set
Actual Time
Civil Twilight
Nautical Twilight
Astronomical Twilight
Moon
Length of Visible Light
Length of Day
Tomorrow will be .
, % of the Moon is Illuminated

Today's Extremes

State Highs State Lows

Community

WunderPhotos

Upload Photos

1,928,302 photos uploaded!

WunderBlog® & News

Nearby

Air Quality

  Air Quality AQ Index Pollutant
Not available.

Snow Depth

Station Depth Elevation

Earthquake Activity

City Distance Mag. Time & Date
Minimum magnitude displayed is 2.5.

Coastal Water Temperatures

Place Temperature

Stations

Nearby Weather Stations

Station Location Temp. Windchill Dew Point Humidity Wind Precip. Elev Updated Type
                   

Watches & Warnings

There are currently no watches in effect.